Hatteras, NC (27943)

6:52 PM EDT on August 31, 2015 (GMT -0400)
Mitchell | | Change Station
CLOSE
Current Station
Airport
Location: Hatteras,
Elevation: 10 ft
Nearby Weather Stations

Elev 10 ft 35.23 °N, 75.62 °W | Updated 1 hour ago

Overcast
Overcast
77 °F
Feels Like 77 °F
N
8
Wind Variable Wind from SSE

Today
High -- | Low -- °F
--% Chance of Precip.
Yesterday
High -- | Low -- °F
Precip. -- in
6:34 AM 7:31 PM
Waning Gibbous, 93% visible
Pressure 30.08 in
Visibility 10.0 miles
Clouds Overcast 9500 ft
Dew Point 72 °F
Humidity 84%
Rainfall 0.34 in
Snow Depth Not available.
UV 0 out of 12
Pollen 8.40 out of 12
Air Quality Not available.
Flu Activity Not available.
METAR KHSE 312151Z AUTO 16007KT 10SM OVC095 25/22 A3008 RMK AO2 SLP184 T02500222 TSNO
Pressure 30.08 in
Visibility 10.0 miles
Clouds Overcast 9500 ft
Dew Point 72 °F
Humidity 84%
Rainfall 0.34 in
Snow Depth Not available.
UV 0 out of 12
Pollen 8.40 out of 12
Air Quality Not available.
Flu Activity Not available.
METAR KHSE 312151Z AUTO 16007KT 10SM OVC095 25/22 A3008 RMK AO2 SLP184 T02500222 TSNO

10-Day Weather Forecast

×

Almanac

Astronomy

Aug. 31, 2015 Rise Set
Actual Time
Civil Twilight
Nautical Twilight
Astronomical Twilight
Moon
Length of Visible Light
Length of Day
Tomorrow will be .
, % of the Moon is Illuminated

Today's Extremes

State Highs State Lows

Community

WunderPhotos

Upload Photos

1,851,390 photos uploaded!

WunderBlogs® & News

Nearby

Air Quality

  Air Quality AQ Index Pollutant
Not available.

Snow Depth

Station Depth Elevation

Earthquake Activity

City Distance Mag. Time & Date
Minimum magnitude displayed is 2.5.

Coastal Water Temperatures

Place Temperature

Stations

Nearby Weather Stations

Station Location Temp. Windchill Dew Point Humidity Wind Precip. Elev Updated Type